createdAt,value
2017-12-19T00:00:50.396Z,1023.47
2017-12-19T00:01:50.405Z,1023.5
2017-12-19T00:02:50.418Z,1023.42
2017-12-19T00:03:50.426Z,1023.43
2017-12-19T00:04:50.439Z,1023.42
2017-12-19T00:05:50.453Z,1023.37
2017-12-19T00:06:50.463Z,1023.37
2017-12-19T00:08:50.482Z,1023.43
2017-12-19T00:09:50.498Z,1023.46
2017-12-19T00:10:50.508Z,1023.46
2017-12-19T00:11:50.527Z,1023.46
2017-12-19T00:12:50.540Z,1023.51
2017-12-19T00:13:50.547Z,1023.54
2017-12-19T00:14:50.559Z,1023.59
2017-12-19T00:15:50.671Z,1023.58
2017-12-19T00:16:50.585Z,1023.52
2017-12-19T00:17:50.592Z,1023.5
2017-12-19T00:18:50.601Z,1023.49
2017-12-19T00:19:50.618Z,1023.47
2017-12-19T00:20:50.631Z,1023.48
2017-12-19T00:21:50.640Z,1023.43
2017-12-19T00:23:50.661Z,1023.42
2017-12-19T00:24:50.675Z,1023.41
2017-12-19T00:25:50.692Z,1023.43
2017-12-19T00:26:50.705Z,1023.38
2017-12-19T00:27:50.714Z,1023.37
2017-12-19T00:28:50.729Z,1023.44
2017-12-19T00:29:50.737Z,1023.41
2017-12-19T00:30:50.753Z,1023.42
2017-12-19T00:31:50.760Z,1023.35
2017-12-19T00:32:50.769Z,1023.36
2017-12-19T00:33:50.776Z,1023.38
2017-12-19T00:34:50.795Z,1023.36
2017-12-19T00:35:50.805Z,1023.37
2017-12-19T00:36:50.817Z,1023.43
2017-12-19T00:37:50.828Z,1023.4
2017-12-19T00:38:50.837Z,1023.45
2017-12-19T00:39:50.848Z,1023.5
2017-12-19T00:40:50.861Z,1023.58
2017-12-19T00:41:50.878Z,1023.59
2017-12-19T00:42:50.894Z,1023.64
2017-12-19T00:43:50.896Z,1023.65
2017-12-19T00:44:50.906Z,1023.69
2017-12-19T00:45:50.929Z,1023.69
2017-12-19T00:46:50.934Z,1023.72
2017-12-19T00:47:50.949Z,1023.73
2017-12-19T00:48:50.961Z,1023.72
2017-12-19T00:49:50.972Z,1023.7
2017-12-19T00:50:50.979Z,1023.7
2017-12-19T00:51:51.001Z,1023.7
2017-12-19T00:52:51.006Z,1023.69
2017-12-19T00:53:51.023Z,1023.68
2017-12-19T00:55:51.037Z,1023.78
2017-12-19T00:56:51.153Z,1023.79
2017-12-19T00:57:51.065Z,1023.81
2017-12-19T00:58:51.079Z,1023.86
2017-12-19T00:59:51.091Z,1023.88
2017-12-19T01:00:51.108Z,1023.88
2017-12-19T01:01:51.114Z,1023.88
2017-12-19T01:02:51.127Z,1023.87
2017-12-19T01:03:51.137Z,1023.9
2017-12-19T01:04:51.247Z,1023.88
2017-12-19T01:05:51.167Z,1023.8
2017-12-19T01:06:51.168Z,1023.82
2017-12-19T01:07:51.187Z,1023.83
2017-12-19T01:08:51.191Z,1023.78
2017-12-19T01:09:51.208Z,1023.81
2017-12-19T01:11:51.228Z,1023.83
2017-12-19T01:12:51.250Z,1023.81
2017-12-19T01:13:51.252Z,1023.87
2017-12-19T01:14:51.265Z,1023.92
2017-12-19T01:15:51.280Z,1023.86
2017-12-19T01:16:51.292Z,1023.89
2017-12-19T01:17:51.311Z,1023.83
2017-12-19T01:18:51.318Z,1023.88
2017-12-19T01:19:51.324Z,1023.86
2017-12-19T01:20:51.345Z,1023.87
2017-12-19T01:21:51.352Z,1023.87
2017-12-19T01:22:51.365Z,1023.88
2017-12-19T01:23:51.371Z,1023.87
2017-12-19T01:24:51.394Z,1023.88
2017-12-19T01:25:51.406Z,1023.91
2017-12-19T01:27:51.418Z,1023.92
2017-12-19T01:28:51.437Z,1023.94
2017-12-19T01:29:51.449Z,1023.95
2017-12-19T01:30:51.456Z,1024
2017-12-19T01:31:51.470Z,1023.99
2017-12-19T01:32:51.484Z,1023.99
2017-12-19T01:33:51.498Z,1023.97
2017-12-19T01:34:51.503Z,1024.04
2017-12-19T01:35:51.522Z,1024.08
2017-12-19T01:36:51.528Z,1024.06
2017-12-19T01:37:51.544Z,1024.04
2017-12-19T01:38:51.558Z,1024.1
2017-12-19T01:39:51.575Z,1024.07
2017-12-19T01:40:51.588Z,1024.06
2017-12-19T01:41:51.590Z,1024.03
2017-12-19T01:43:51.620Z,1023.98
2017-12-19T01:44:51.629Z,1024
2017-12-19T01:45:51.643Z,1023.97
2017-12-19T01:46:51.654Z,1023.95
2017-12-19T01:47:51.662Z,1023.93
2017-12-19T01:48:51.682Z,1023.96
2017-12-19T01:49:51.689Z,1023.95
2017-12-19T01:50:51.709Z,1023.98
2017-12-19T01:51:51.711Z,1024.01
2017-12-19T01:52:51.728Z,1023.99
2017-12-19T01:53:51.745Z,1024.03
2017-12-19T01:54:51.751Z,1024.04
2017-12-19T01:55:51.771Z,1024
2017-12-19T01:56:51.783Z,1024.04
2017-12-19T01:58:51.802Z,1023.97
2017-12-19T01:59:51.819Z,1023.91
2017-12-19T02:00:51.831Z,1023.86
2017-12-19T02:01:51.838Z,1023.85
2017-12-19T02:02:51.851Z,1023.82
2017-12-19T02:03:51.864Z,1023.82
2017-12-19T02:04:51.871Z,1023.78
2017-12-19T02:05:51.882Z,1023.8
2017-12-19T02:06:51.894Z,1023.79
2017-12-19T02:07:51.918Z,1023.82
2017-12-19T02:08:51.924Z,1023.81
2017-12-19T02:09:51.937Z,1023.87
2017-12-19T02:10:51.949Z,1023.89
2017-12-19T02:11:51.962Z,1023.9
2017-12-19T02:12:51.975Z,1023.88
2017-12-19T02:13:51.981Z,1023.84
2017-12-19T02:14:51.997Z,1023.82
2017-12-19T02:15:52.011Z,1023.83
2017-12-19T02:16:52.018Z,1023.86
2017-12-19T02:17:52.036Z,1023.9
2017-12-19T02:18:52.052Z,1023.93
2017-12-19T02:19:52.061Z,1023.95
2017-12-19T02:20:52.068Z,1023.9
2017-12-19T02:21:52.078Z,1023.88
2017-12-19T02:22:52.098Z,1023.86
2017-12-19T02:23:52.111Z,1023.85
2017-12-19T02:24:52.117Z,1023.82
2017-12-19T02:25:52.140Z,1023.84
2017-12-19T02:26:52.148Z,1023.84
2017-12-19T02:27:52.164Z,1023.88
2017-12-19T02:28:52.176Z,1023.86
2017-12-19T02:30:52.190Z,1023.84
2017-12-19T02:31:52.215Z,1023.85
2017-12-19T02:32:52.225Z,1023.89
2017-12-19T02:33:52.235Z,1023.86
2017-12-19T02:34:52.248Z,1023.87
2017-12-19T02:35:52.254Z,1023.86
2017-12-19T02:36:52.265Z,1023.89
2017-12-19T02:37:52.282Z,1023.84
2017-12-19T02:38:52.296Z,1023.82
2017-12-19T02:39:52.308Z,1023.81
2017-12-19T02:40:52.315Z,1023.83
2017-12-19T02:41:52.332Z,1023.82
2017-12-19T02:42:52.351Z,1023.82
2017-12-19T02:43:52.357Z,1023.82
2017-12-19T02:44:52.369Z,1023.76
2017-12-19T02:46:52.394Z,1023.7
2017-12-19T02:47:52.406Z,1023.7
2017-12-19T02:48:52.415Z,1023.7
2017-12-19T02:49:52.435Z,1023.64
2017-12-19T02:50:52.451Z,1023.59
2017-12-19T02:51:52.457Z,1023.61
2017-12-19T02:52:52.471Z,1023.63
2017-12-19T02:53:52.495Z,1023.67
2017-12-19T02:54:52.490Z,1023.73
2017-12-19T02:55:52.513Z,1023.83
2017-12-19T02:56:52.516Z,1023.8
2017-12-19T02:57:52.533Z,1023.77
2017-12-19T02:58:52.546Z,1023.77
2017-12-19T02:59:52.563Z,1023.75
2017-12-19T03:00:52.569Z,1023.82
2017-12-19T03:02:52.595Z,1023.89
2017-12-19T03:03:52.610Z,1023.82
2017-12-19T03:04:52.620Z,1023.82
2017-12-19T03:05:52.637Z,1023.87
2017-12-19T03:06:52.639Z,1023.9
2017-12-19T03:07:52.660Z,1023.95
2017-12-19T03:08:52.666Z,1023.98
2017-12-19T03:09:52.681Z,1023.97
2017-12-19T03:10:52.695Z,1023.94
2017-12-19T03:11:52.708Z,1023.87
2017-12-19T03:12:52.719Z,1023.86
2017-12-19T03:13:52.734Z,1023.9
2017-12-19T03:14:52.751Z,1023.91
2017-12-19T03:15:52.764Z,1023.96
2017-12-19T03:16:52.776Z,1023.99
2017-12-19T03:18:52.796Z,1023.87
2017-12-19T03:19:52.809Z,1023.92
2017-12-19T03:20:52.828Z,1023.89
2017-12-19T03:21:52.830Z,1023.91
2017-12-19T03:22:52.852Z,1023.91
2017-12-19T03:23:52.864Z,1023.89
2017-12-19T03:24:52.873Z,1023.91
2017-12-19T03:25:52.879Z,1023.9
2017-12-19T03:26:52.893Z,1023.86
2017-12-19T03:27:52.915Z,1023.79
2017-12-19T03:28:52.921Z,1023.8
2017-12-19T03:29:52.936Z,1023.77
2017-12-19T03:30:52.949Z,1023.78
2017-12-19T03:31:52.957Z,1023.78
2017-12-19T03:33:52.982Z,1023.81
2017-12-19T03:34:53.005Z,1023.79
2017-12-19T03:35:53.007Z,1023.84
2017-12-19T03:36:53.019Z,1023.88
2017-12-19T03:37:53.042Z,1023.88
2017-12-19T03:38:53.049Z,1023.89
2017-12-19T03:39:53.069Z,1023.9
2017-12-19T03:40:53.070Z,1023.86
2017-12-19T03:41:53.089Z,1023.92
2017-12-19T03:42:53.100Z,1023.96
2017-12-19T03:43:53.109Z,1024.01
2017-12-19T03:44:53.127Z,1024.02
2017-12-19T03:45:53.145Z,1024.06
2017-12-19T03:46:53.153Z,1024.07
2017-12-19T03:47:53.160Z,1024.01
2017-12-19T03:48:53.179Z,1024.03
2017-12-19T03:49:53.190Z,1024.02
2017-12-19T03:50:53.201Z,1024.03
2017-12-19T03:51:53.211Z,1024.04
2017-12-19T03:52:53.226Z,1024.04
2017-12-19T03:53:53.240Z,1024.05
2017-12-19T03:54:53.248Z,1024.04
2017-12-19T03:55:53.271Z,1024.1
2017-12-19T03:56:53.284Z,1024.12
2017-12-19T03:57:53.296Z,1024.09
2017-12-19T03:58:53.305Z,1024.04
2017-12-19T03:59:53.319Z,1024.05
2017-12-19T04:00:53.334Z,1023.99
2017-12-19T04:01:53.348Z,1023.94
2017-12-19T04:02:53.360Z,1023.95
2017-12-19T04:03:53.368Z,1023.87
2017-12-19T04:05:53.392Z,1023.87
2017-12-19T04:06:53.404Z,1023.93
2017-12-19T04:07:53.420Z,1023.97
2017-12-19T04:08:53.432Z,1023.98
2017-12-19T04:09:53.449Z,1023.99
2017-12-19T04:10:53.451Z,1024.02
2017-12-19T04:11:53.467Z,1023.97
2017-12-19T04:12:53.486Z,1024.04
2017-12-19T04:13:53.499Z,1024.04
2017-12-19T04:14:53.511Z,1024.06
2017-12-19T04:15:53.525Z,1024.06
2017-12-19T04:16:53.528Z,1023.99
2017-12-19T04:17:53.548Z,1023.93
2017-12-19T04:18:53.552Z,1023.94
2017-12-19T04:19:53.621Z,1023.95
2017-12-19T04:21:53.602Z,1024.05
2017-12-19T04:22:53.614Z,1023.99
2017-12-19T04:23:53.617Z,1023.98
2017-12-19T04:24:53.634Z,1023.95
2017-12-19T04:25:53.643Z,1023.98
2017-12-19T04:26:53.660Z,1023.96
2017-12-19T04:27:53.679Z,1023.96
2017-12-19T04:28:53.687Z,1023.99
2017-12-19T04:29:53.697Z,1023.98
2017-12-19T04:30:53.771Z,1023.96
2017-12-19T04:31:53.724Z,1023.99
2017-12-19T04:32:53.744Z,1023.91
2017-12-19T04:33:53.748Z,1023.92
2017-12-19T04:34:53.767Z,1023.89
2017-12-19T04:35:53.778Z,1023.87
2017-12-19T04:37:53.806Z,1023.88
2017-12-19T04:38:53.816Z,1023.89
2017-12-19T04:39:53.828Z,1023.87
2017-12-19T04:40:53.855Z,1023.87
2017-12-19T04:41:53.848Z,1023.85
2017-12-19T04:42:53.861Z,1023.87
2017-12-19T04:43:53.875Z,1023.81
2017-12-19T04:44:53.887Z,1023.9
2017-12-19T04:45:53.904Z,1023.87
2017-12-19T04:46:53.922Z,1023.84
2017-12-19T04:47:53.930Z,1023.85
2017-12-19T04:48:53.938Z,1023.87
2017-12-19T04:49:53.962Z,1023.91
2017-12-19T04:50:53.970Z,1023.95
2017-12-19T04:51:53.986Z,1023.97
2017-12-19T04:53:54.005Z,1024.09
2017-12-19T04:54:54.015Z,1024.04
2017-12-19T04:55:54.027Z,1024.07
2017-12-19T04:56:54.050Z,1024.05
2017-12-19T04:57:54.058Z,1024.04
2017-12-19T04:58:54.069Z,1024.02
2017-12-19T04:59:54.079Z,1023.99
2017-12-19T05:00:54.097Z,1023.98
2017-12-19T05:01:54.104Z,1024
2017-12-19T05:02:54.121Z,1023.99
2017-12-19T05:03:54.135Z,1024.03
2017-12-19T05:04:54.144Z,1024.01
2017-12-19T05:05:54.164Z,1024.04
2017-12-19T05:06:54.173Z,1024.04
2017-12-19T05:08:54.201Z,1024.04
2017-12-19T05:09:54.211Z,1024.03
2017-12-19T05:10:54.231Z,1024
2017-12-19T05:11:54.245Z,1024.01
2017-12-19T05:12:54.257Z,1023.97
2017-12-19T05:13:54.265Z,1023.99
2017-12-19T05:14:54.271Z,1023.98
2017-12-19T05:15:54.284Z,1023.97
2017-12-19T05:16:54.304Z,1023.93
2017-12-19T05:17:54.315Z,1023.9
2017-12-19T05:18:54.328Z,1023.83
2017-12-19T05:19:54.342Z,1023.83
2017-12-19T05:20:54.355Z,1023.8
2017-12-19T05:21:54.362Z,1023.87
2017-12-19T05:22:54.385Z,1023.88
2017-12-19T05:23:54.388Z,1023.93
2017-12-19T05:24:54.406Z,1023.97
2017-12-19T05:25:54.417Z,1023.94
2017-12-19T05:26:54.433Z,1023.94
2017-12-19T05:27:54.455Z,1023.89
2017-12-19T05:28:54.452Z,1023.82
2017-12-19T05:29:54.467Z,1023.76
2017-12-19T05:30:54.485Z,1023.8
2017-12-19T05:31:54.493Z,1023.84
2017-12-19T05:32:54.516Z,1023.92
2017-12-19T05:33:54.528Z,1023.95
2017-12-19T05:34:54.536Z,1024.03
2017-12-19T05:35:54.549Z,1024.03
2017-12-19T05:36:54.562Z,1023.96
2017-12-19T05:37:54.570Z,1023.97
2017-12-19T05:38:54.583Z,1023.92
2017-12-19T05:40:54.613Z,1023.99
2017-12-19T05:41:54.633Z,1024.02
2017-12-19T05:42:54.642Z,1024.03
2017-12-19T05:43:54.651Z,1024.08
2017-12-19T05:44:54.668Z,1024.11
2017-12-19T05:45:54.674Z,1024.09
2017-12-19T05:46:54.698Z,1024.08
2017-12-19T05:47:54.960Z,1024.03
2017-12-19T05:48:54.727Z,1024.04
2017-12-19T05:49:54.731Z,1024.01
2017-12-19T05:50:54.745Z,1024.02
2017-12-19T05:51:54.764Z,1024
2017-12-19T05:52:54.766Z,1024.03
2017-12-19T05:53:54.790Z,1023.95
2017-12-19T05:54:54.854Z,1023.93
2017-12-19T05:56:54.828Z,1023.92
2017-12-19T05:57:54.838Z,1023.91
2017-12-19T05:58:54.850Z,1023.91
2017-12-19T05:59:54.862Z,1023.91
2017-12-19T06:00:54.876Z,1023.94
2017-12-19T06:01:54.891Z,1023.96
2017-12-19T06:02:54.902Z,1023.99
2017-12-19T06:03:54.923Z,1023.99
2017-12-19T06:04:54.934Z,1023.96
2017-12-19T06:05:54.939Z,1023.98
2017-12-19T06:06:54.956Z,1023.94
2017-12-19T06:07:54.976Z,1023.91
2017-12-19T06:08:54.977Z,1023.95
2017-12-19T06:09:54.998Z,1023.96
2017-12-19T06:10:55.010Z,1023.95
2017-12-19T06:12:55.037Z,1023.96
2017-12-19T06:13:55.049Z,1023.96
2017-12-19T06:14:55.058Z,1023.91
2017-12-19T06:15:55.070Z,1023.93
2017-12-19T06:16:55.089Z,1023.92
2017-12-19T06:17:55.103Z,1023.94
2017-12-19T06:18:55.121Z,1023.96
2017-12-19T06:19:55.134Z,1023.94
2017-12-19T06:20:55.149Z,1023.94
2017-12-19T06:21:55.155Z,1023.94
2017-12-19T06:22:55.169Z,1023.97
2017-12-19T06:23:55.186Z,1023.97
2017-12-19T06:24:55.193Z,1024
2017-12-19T06:25:55.208Z,1023.99
2017-12-19T06:26:55.216Z,1024.01
2017-12-19T06:28:55.257Z,1023.93
2017-12-19T06:29:55.261Z,1023.94
2017-12-19T06:30:55.274Z,1023.94
2017-12-19T06:31:55.288Z,1023.97
2017-12-19T06:32:55.303Z,1023.93
2017-12-19T06:33:55.309Z,1024
2017-12-19T06:34:55.335Z,1024.01
2017-12-19T06:35:55.336Z,1024.11
2017-12-19T06:36:55.350Z,1024.11
2017-12-19T06:37:55.361Z,1024.15
2017-12-19T06:38:55.374Z,1024.2
2017-12-19T06:39:55.400Z,1024.16
2017-12-19T06:40:55.413Z,1024.1
2017-12-19T06:41:55.415Z,1024.1
2017-12-19T06:43:55.453Z,1024.12
2017-12-19T06:44:55.459Z,1024.14
2017-12-19T06:45:55.469Z,1024.17
2017-12-19T06:46:55.483Z,1024.23
2017-12-19T06:47:55.499Z,1024.26
2017-12-19T06:48:55.514Z,1024.29
2017-12-19T06:49:55.524Z,1024.3
2017-12-19T06:50:55.543Z,1024.32
2017-12-19T06:51:55.549Z,1024.31
2017-12-19T06:52:55.562Z,1024.33
2017-12-19T06:53:55.580Z,1024.34
2017-12-19T06:54:55.596Z,1024.33
2017-12-19T06:55:55.606Z,1024.33
2017-12-19T06:56:55.619Z,1024.36
2017-12-19T06:57:55.629Z,1024.4
2017-12-19T06:58:55.642Z,1024.42
2017-12-19T06:59:55.660Z,1024.38
2017-12-19T07:00:55.675Z,1024.37
2017-12-19T07:01:55.692Z,1024.39
2017-12-19T07:02:55.701Z,1024.4
2017-12-19T07:03:55.714Z,1024.38
2017-12-19T07:04:55.728Z,1024.42
2017-12-19T07:05:55.742Z,1024.46
2017-12-19T07:06:55.759Z,1024.48
2017-12-19T07:07:55.772Z,1024.52
2017-12-19T07:08:55.786Z,1024.58
2017-12-19T07:09:55.800Z,1024.59
2017-12-19T07:10:55.802Z,1024.58
2017-12-19T07:11:55.816Z,1024.57
2017-12-19T07:12:55.836Z,1024.56
2017-12-19T07:13:55.845Z,1024.57
2017-12-19T07:15:55.870Z,1024.63
2017-12-19T07:16:55.893Z,1024.68
2017-12-19T07:17:55.902Z,1024.65
2017-12-19T07:18:55.920Z,1024.61
2017-12-19T07:19:55.931Z,1024.59
2017-12-19T07:20:55.944Z,1024.61
2017-12-19T07:21:55.954Z,1024.63
2017-12-19T07:22:55.965Z,1024.57
2017-12-19T07:23:55.977Z,1024.51
2017-12-19T07:24:55.991Z,1024.48
2017-12-19T07:25:56.015Z,1024.47
2017-12-19T07:26:56.028Z,1024.46
2017-12-19T07:27:56.032Z,1024.42
2017-12-19T07:28:56.050Z,1024.43
2017-12-19T07:29:56.060Z,1024.41
2017-12-19T07:31:56.094Z,1024.36
2017-12-19T07:32:56.104Z,1024.36
2017-12-19T07:33:56.121Z,1024.4
2017-12-19T07:34:56.136Z,1024.44
2017-12-19T07:35:56.149Z,1024.57
2017-12-19T07:36:56.158Z,1024.61
2017-12-19T07:37:56.167Z,1024.62
2017-12-19T07:38:56.184Z,1024.64
2017-12-19T07:39:56.198Z,1024.67
2017-12-19T07:40:56.210Z,1024.62
2017-12-19T07:41:56.220Z,1024.64
2017-12-19T07:42:56.240Z,1024.56
2017-12-19T07:43:56.247Z,1024.58
2017-12-19T07:44:56.272Z,1024.54
2017-12-19T07:45:56.280Z,1024.56
2017-12-19T07:47:56.311Z,1024.46
2017-12-19T07:48:56.320Z,1024.39
2017-12-19T07:49:56.335Z,1024.38
2017-12-19T07:50:56.353Z,1024.38
2017-12-19T07:51:56.360Z,1024.38
2017-12-19T07:52:56.380Z,1024.33
2017-12-19T07:53:56.389Z,1024.31
2017-12-19T07:54:56.401Z,1024.32
2017-12-19T07:55:56.411Z,1024.37
2017-12-19T07:56:56.435Z,1024.37
2017-12-19T07:57:56.449Z,1024.39
2017-12-19T07:58:56.454Z,1024.46
2017-12-19T07:59:56.472Z,1024.42
2017-12-19T08:00:56.482Z,1024.47
2017-12-19T08:01:56.502Z,1024.44
2017-12-19T08:03:56.523Z,1024.42
2017-12-19T08:04:56.543Z,1024.34
2017-12-19T08:05:56.550Z,1024.3
2017-12-19T08:06:56.564Z,1024.37
2017-12-19T08:07:56.589Z,1024.4
2017-12-19T08:08:56.598Z,1024.4
2017-12-19T08:09:56.607Z,1024.46
2017-12-19T08:10:56.616Z,1024.46
2017-12-19T08:11:56.633Z,1024.53
2017-12-19T08:12:56.646Z,1024.55
2017-12-19T08:13:56.667Z,1024.57
2017-12-19T08:14:56.679Z,1024.61
2017-12-19T08:15:56.688Z,1024.64
2017-12-19T08:16:56.708Z,1024.64
2017-12-19T08:18:56.735Z,1024.66
2017-12-19T08:19:56.742Z,1024.68
2017-12-19T08:20:56.756Z,1024.7
2017-12-19T08:21:56.765Z,1024.69
2017-12-19T08:22:56.785Z,1024.67
2017-12-19T08:23:56.797Z,1024.64
2017-12-19T08:24:56.816Z,1024.68
2017-12-19T08:25:56.830Z,1024.71
2017-12-19T08:26:56.834Z,1024.75
2017-12-19T08:27:56.859Z,1024.74
2017-12-19T08:28:56.868Z,1024.75
2017-12-19T08:29:56.875Z,1024.72
2017-12-19T08:30:56.888Z,1024.7
2017-12-19T08:31:56.906Z,1024.66
2017-12-19T08:32:56.920Z,1024.67
2017-12-19T08:33:56.931Z,1024.63
2017-12-19T08:34:56.946Z,1024.63
2017-12-19T08:35:56.961Z,1024.61
2017-12-19T08:36:56.976Z,1024.54
2017-12-19T08:37:56.995Z,1024.52
2017-12-19T08:38:57.007Z,1024.53
2017-12-19T08:39:57.012Z,1024.57
2017-12-19T08:40:57.033Z,1024.54
2017-12-19T08:41:57.039Z,1024.61
2017-12-19T08:42:57.060Z,1024.55
2017-12-19T08:43:57.078Z,1024.62
2017-12-19T08:44:57.091Z,1024.58
2017-12-19T08:45:57.104Z,1024.56
2017-12-19T08:46:57.118Z,1024.55
2017-12-19T08:47:57.121Z,1024.53
2017-12-19T08:48:57.147Z,1024.58
2017-12-19T08:50:57.169Z,1024.67
2017-12-19T08:51:57.182Z,1024.57
2017-12-19T08:52:57.200Z,1024.59
2017-12-19T08:53:57.219Z,1024.54
2017-12-19T08:54:57.218Z,1024.56
2017-12-19T08:55:57.232Z,1024.62
2017-12-19T08:56:57.252Z,1024.62
2017-12-19T08:57:57.261Z,1024.62
2017-12-19T08:58:57.284Z,1024.64
2017-12-19T08:59:57.292Z,1024.62
2017-12-19T09:00:57.312Z,1024.62
2017-12-19T09:01:57.319Z,1024.62
2017-12-19T09:02:57.336Z,1024.59
2017-12-19T09:03:57.343Z,1024.6
2017-12-19T09:04:57.362Z,1024.64
2017-12-19T09:06:57.387Z,1024.77
2017-12-19T09:07:57.406Z,1024.86
2017-12-19T09:08:57.417Z,1024.92
2017-12-19T09:09:57.432Z,1024.96
2017-12-19T09:10:57.445Z,1025.02
2017-12-19T09:11:57.456Z,1025.04
2017-12-19T09:12:57.469Z,1025.03
2017-12-19T09:13:57.487Z,1025.07
2017-12-19T09:14:57.508Z,1025.05
2017-12-19T09:15:57.515Z,1025.08
2017-12-19T09:16:57.531Z,1025.1
2017-12-19T09:17:57.540Z,1025.16
2017-12-19T09:18:57.552Z,1025.12
2017-12-19T09:19:57.567Z,1025.16
2017-12-19T09:20:57.592Z,1025.16
2017-12-19T09:22:57.609Z,1025.03
2017-12-19T09:23:57.630Z,1025.03
2017-12-19T09:24:57.644Z,1024.97
2017-12-19T09:25:57.656Z,1024.95
2017-12-19T09:26:57.670Z,1024.96
2017-12-19T09:27:57.681Z,1024.97
2017-12-19T09:28:57.695Z,1024.97
2017-12-19T09:29:57.707Z,1024.98
2017-12-19T09:30:57.726Z,1025
2017-12-19T09:31:57.740Z,1025.02
2017-12-19T09:32:57.754Z,1025
2017-12-19T09:33:57.774Z,1025
2017-12-19T09:34:57.786Z,1025.02
2017-12-19T09:35:57.799Z,1024.93
2017-12-19T09:36:57.811Z,1024.89
2017-12-19T09:38:57.835Z,1024.92
2017-12-19T09:39:57.854Z,1024.97
2017-12-19T09:40:57.869Z,1025.02
2017-12-19T09:41:57.883Z,1024.98
2017-12-19T09:42:57.898Z,1024.97
2017-12-19T09:43:57.910Z,1024.91
2017-12-19T09:44:57.924Z,1024.86
2017-12-19T09:45:57.934Z,1024.82
2017-12-19T09:46:57.958Z,1024.85
2017-12-19T09:47:57.963Z,1024.76
2017-12-19T09:48:57.977Z,1024.7
2017-12-19T09:49:57.994Z,1024.66
2017-12-19T09:50:58.006Z,1024.57
2017-12-19T09:51:58.030Z,1024.55
2017-12-19T09:53:58.055Z,1024.7
2017-12-19T09:54:58.061Z,1024.67
2017-12-19T09:55:58.087Z,1024.75
2017-12-19T09:56:58.103Z,1024.81
2017-12-19T09:57:58.116Z,1024.81
2017-12-19T09:58:58.126Z,1024.78
2017-12-19T09:59:58.138Z,1024.7
2017-12-19T10:00:58.152Z,1024.72
2017-12-19T10:01:58.172Z,1024.86
2017-12-19T10:02:58.177Z,1024.98
2017-12-19T10:03:58.193Z,1024.97
2017-12-19T10:04:58.211Z,1024.98
2017-12-19T10:05:58.224Z,1024.97
2017-12-19T10:06:58.238Z,1024.93
2017-12-19T10:07:58.260Z,1024.92
2017-12-19T10:08:58.270Z,1024.85
2017-12-19T10:09:58.283Z,1024.9
2017-12-19T10:10:58.303Z,1024.91
2017-12-19T10:11:58.316Z,1024.98
2017-12-19T10:12:58.334Z,1024.96
2017-12-19T10:13:58.335Z,1024.98
2017-12-19T10:14:58.349Z,1024.96
2017-12-19T10:15:58.365Z,1024.93
2017-12-19T10:16:58.377Z,1024.91
2017-12-19T10:17:58.398Z,1024.94
2017-12-19T10:18:58.466Z,1024.89
2017-12-19T10:19:58.428Z,1024.78
2017-12-19T10:20:58.435Z,1024.77
2017-12-19T10:21:58.454Z,1024.78
2017-12-19T10:22:58.474Z,1024.81
2017-12-19T10:23:58.490Z,1024.85
2017-12-19T10:25:58.518Z,1024.9
2017-12-19T10:26:58.534Z,1024.94
2017-12-19T10:27:58.543Z,1024.93
2017-12-19T10:28:58.557Z,1024.91
2017-12-19T10:29:58.567Z,1024.94
2017-12-19T10:30:58.585Z,1024.94
2017-12-19T10:31:58.601Z,1024.92
2017-12-19T10:32:58.609Z,1024.93
2017-12-19T10:33:58.631Z,1024.97
2017-12-19T10:34:58.642Z,1024.95
2017-12-19T10:35:58.658Z,1024.98
2017-12-19T10:36:58.678Z,1024.94
2017-12-19T10:37:58.692Z,1024.94
2017-12-19T10:38:58.695Z,1024.95
2017-12-19T10:39:58.714Z,1024.99
2017-12-19T10:41:58.751Z,1025
2017-12-19T10:42:58.762Z,1024.96
2017-12-19T10:43:58.779Z,1024.99
2017-12-19T10:44:58.801Z,1024.95
2017-12-19T10:45:58.807Z,1024.97
2017-12-19T10:46:58.821Z,1024.95
2017-12-19T10:47:58.833Z,1024.99
2017-12-19T10:48:58.851Z,1024.98
2017-12-19T10:49:58.865Z,1025
2017-12-19T10:50:58.880Z,1024.97
2017-12-19T10:51:58.889Z,1024.95
2017-12-19T10:52:58.905Z,1024.97
2017-12-19T10:53:58.914Z,1024.94
2017-12-19T10:54:58.938Z,1024.9
2017-12-19T10:55:58.947Z,1024.89
2017-12-19T10:57:58.985Z,1024.91
2017-12-19T10:58:58.986Z,1024.88
2017-12-19T10:59:59.012Z,1024.78
2017-12-19T11:00:59.019Z,1024.77
2017-12-19T11:01:59.031Z,1024.77
2017-12-19T11:02:59.046Z,1024.77
2017-12-19T11:03:59.068Z,1024.73
2017-12-19T11:04:59.076Z,1024.73
2017-12-19T11:05:59.097Z,1024.76
2017-12-19T11:06:59.116Z,1024.77
2017-12-19T11:07:59.126Z,1024.77
2017-12-19T11:08:59.138Z,1024.8
2017-12-19T11:09:59.153Z,1024.69
2017-12-19T11:10:59.174Z,1024.7
2017-12-19T11:11:59.178Z,1024.66
2017-12-19T11:13:59.214Z,1024.65
2017-12-19T11:14:59.234Z,1024.65
2017-12-19T11:15:59.247Z,1024.66
2017-12-19T11:16:59.251Z,1024.59
2017-12-19T11:17:59.275Z,1024.53
2017-12-19T11:18:59.287Z,1024.51
2017-12-19T11:19:59.298Z,1024.5
2017-12-19T11:20:59.311Z,1024.46
2017-12-19T11:21:59.336Z,1024.47
2017-12-19T11:22:59.345Z,1024.46
2017-12-19T11:23:59.359Z,1024.42
2017-12-19T11:24:59.382Z,1024.42
2017-12-19T11:25:59.390Z,1024.44
2017-12-19T11:26:59.404Z,1024.47
2017-12-19T11:28:59.434Z,1024.54
2017-12-19T11:29:59.518Z,1024.55
2017-12-19T11:30:59.465Z,1024.57
2017-12-19T11:31:59.480Z,1024.58
2017-12-19T11:32:59.500Z,1024.62
2017-12-19T11:33:59.514Z,1024.62
2017-12-19T11:34:59.519Z,1024.66
2017-12-19T11:35:59.544Z,1024.63
2017-12-19T11:36:59.571Z,1024.61
2017-12-19T11:37:59.569Z,1024.57
2017-12-19T11:38:59.588Z,1024.55
2017-12-19T11:39:59.594Z,1024.48
2017-12-19T11:40:59.608Z,1024.42
2017-12-19T11:41:59.623Z,1024.36
2017-12-19T11:42:59.638Z,1024.34
2017-12-19T11:43:59.664Z,1024.32
2017-12-19T11:44:59.677Z,1024.33
2017-12-19T11:45:59.692Z,1024.24
2017-12-19T11:46:59.702Z,1024.26
2017-12-19T11:47:59.712Z,1024.28
2017-12-19T11:48:59.730Z,1024.28
2017-12-19T11:49:59.745Z,1024.33
2017-12-19T11:50:59.788Z,1024.35
2017-12-19T11:51:59.777Z,1024.38
2017-12-19T11:52:59.792Z,1024.39
2017-12-19T11:53:59.806Z,1024.43
2017-12-19T11:54:59.820Z,1024.41
2017-12-19T11:55:59.830Z,1024.44
2017-12-19T11:56:59.852Z,1024.45
2017-12-19T11:57:59.867Z,1024.46
2017-12-19T11:58:59.875Z,1024.46
2017-12-19T12:00:59.916Z,1024.44
2017-12-19T12:01:59.927Z,1024.44
2017-12-19T12:02:59.935Z,1024.38
2017-12-19T12:03:59.953Z,1024.37
2017-12-19T12:04:59.964Z,1024.31
2017-12-19T12:05:59.990Z,1024.29
2017-12-19T12:07:00.001Z,1024.16
2017-12-19T12:08:00.010Z,1024.12
2017-12-19T12:09:00.028Z,1024.09
2017-12-19T12:10:00.050Z,1024.1
2017-12-19T12:11:00.058Z,1024.05
2017-12-19T12:12:00.070Z,1024.11
2017-12-19T12:13:00.085Z,1024.12
2017-12-19T12:14:00.104Z,1024.1
2017-12-19T12:15:00.119Z,1024.12
2017-12-19T12:17:00.143Z,1024.21
2017-12-19T12:18:00.165Z,1024.21
2017-12-19T12:19:00.172Z,1024.2
2017-12-19T12:20:00.199Z,1024.16
2017-12-19T12:21:00.212Z,1024.18
2017-12-19T12:22:00.221Z,1024.19
2017-12-19T12:23:00.241Z,1024.19
2017-12-19T12:24:00.258Z,1024.25
2017-12-19T12:25:00.269Z,1024.24
2017-12-19T12:26:00.277Z,1024.24
2017-12-19T12:27:00.298Z,1024.21
2017-12-19T12:28:00.313Z,1024.21
2017-12-19T12:29:00.332Z,1024.15
2017-12-19T12:30:00.348Z,1024.09
2017-12-19T12:31:00.352Z,1024.08
2017-12-19T12:33:00.382Z,1023.97
2017-12-19T12:34:00.398Z,1023.92
2017-12-19T12:35:00.419Z,1023.95
2017-12-19T12:36:00.426Z,1023.94
2017-12-19T12:37:00.451Z,1024.01
2017-12-19T12:38:00.464Z,1024.04
2017-12-19T12:39:00.472Z,1024.15
2017-12-19T12:40:00.490Z,1024.2
2017-12-19T12:41:00.512Z,1024.2
2017-12-19T12:42:00.527Z,1024.18
2017-12-19T12:43:00.537Z,1024.13
2017-12-19T12:44:00.553Z,1024.12
2017-12-19T12:45:00.561Z,1024.13
2017-12-19T12:46:00.575Z,1024.2
2017-12-19T12:47:00.600Z,1024.17
2017-12-19T12:49:00.621Z,1024.3
2017-12-19T12:50:00.645Z,1024.3